Flight Track Log - Related Links

Times and Time Zones

All times are in EST time to prevent confusion due to time zone crossing. See the DAL1214 flight status page for this flight to view local times or setup timezone preferences in your user account.

Time Position Orientation Groundspeed Altitude Reporting Facility
EST Latitude Longitude Course Direction KTS MPH feet Rate Location/Type
Tue 08:10:17 AM 41.3153 -95.9117 47° Northeast 177 204 1,600  Level Minneapolis Center
Tue 08:11:00 AM 41.3556 -95.9208 350° North 209 241 2,900 1,477 Climbing Minneapolis Center
Tue 08:11:22 AM 41.3733 -95.9094 26° Northeast 234 269 3,200 1,880 Climbing Minneapolis Center
Tue 08:12:23 AM 41.4269 -95.8425 43° Northeast 258 297 5,500 2,390 Climbing Minneapolis Center
Tue 08:13:00 AM 41.6219 -95.6701 37° Northeast  Level Estimated
Tue 08:13:25 AM 41.4844 -95.7667 45° Northeast 275 316 8,100  Level Minneapolis Center
Tue 08:14:00 AM 41.7281 -95.5949 37° Northeast  Level Estimated
Tue 08:14:26 AM 41.5472 -95.6889 43° Northeast 292 336 10,400  Level Minneapolis Center
Tue 08:15:00 AM 41.8342 -95.5195 47° Northeast  Level Estimated
Tue 08:15:27 AM 41.6164 -95.6019 43° Northeast 316 364 11,800  Level Minneapolis Center
Tue 08:16:29 AM 41.7158 -95.4731 44° Northeast 401 461 14,200 2,488 Climbing Minneapolis Center
Tue 08:17:30 AM 41.7994 -95.3650 44° Northeast 416 479 16,900 3,049 Climbing Minneapolis Center
Tue 08:18:31 AM 41.8794 -95.2617 44° Northeast 406 467 20,400 2,488 Climbing Minneapolis Center
Tue 08:19:33 AM 41.9614 -95.1550 44° Northeast 408 470 22,000 1,463 Climbing Minneapolis Center
Tue 08:20:34 AM 42.0456 -95.0444 44° Northeast 419 482 23,400 1,230 Climbing Minneapolis Center
Tue 08:21:35 AM 42.1336 -94.9283 44° Northeast 437 503 24,500 878 Climbing Minneapolis Center
Tue 08:22:37 AM 42.2289 -94.8053 44° Northeast 466 536 25,200 780 Climbing Minneapolis Center
Tue 08:23:38 AM 42.3272 -94.6742 45° Northeast 491 565 26,100 1,415 Climbing Minneapolis Center
Tue 08:24:40 AM 42.4261 -94.5411 45° Northeast 499 574 28,100 1,415 Climbing Minneapolis Center
Tue 08:25:41 AM 42.5214 -94.4094 46° Northeast 486 559 29,000 443 Climbing Minneapolis Center
Tue 08:26:42 AM 42.6386 -94.2575 44° Northeast 488 562 29,000  Level Minneapolis Center
Tue 08:27:44 AM 42.7461 -94.1453 37° Northeast 489 563 29,000  Level Minneapolis Center
Tue 08:28:45 AM 42.8475 -94.0317 39° Northeast 480 552 29,000  Level Minneapolis Center
Tue 08:29:47 AM 42.9506 -93.9167 39° Northeast 480 552 29,000  Level Minneapolis Center
Tue 08:30:48 AM 43.0558 -93.8031 38° Northeast 483 556 29,000  Level Minneapolis Center
Tue 08:31:50 AM 43.1633 -93.6978 36° Northeast 481 554 29,000  Level Minneapolis Center
Tue 08:32:51 AM 43.2864 -93.6539 15° North 462 532 29,000 -295 Level Minneapolis Center
Tue 08:33:52 AM 43.4081 -93.6325 North 448 516 28,400 -1,561 Descending Minneapolis Center
Tue 08:34:54 AM 43.5494 -93.6039 North 450 518 25,800 -2,274 Descending Minneapolis Center
Tue 08:35:56 AM 43.6711 -93.5786 North 447 514 23,700 -2,244 Descending Minneapolis Center
Tue 08:36:57 AM 43.7878 -93.5556 North 429 494 21,200 -2,293 Descending Minneapolis Center
Tue 08:37:59 AM 43.8994 -93.5322 North 412 474 19,000 -2,585 Descending Minneapolis Center
Tue 08:39:00 AM 44.0261 -93.5056 North 388 447 15,900 -2,732 Descending Minneapolis Center
Tue 08:40:02 AM 44.1319 -93.4831 North 385 443 13,400 -2,323 Descending Minneapolis Center
Tue 08:41:04 AM 44.2372 -93.4583 10° North 386 444 11,100 -1,171 Descending Minneapolis Center
Tue 08:42:05 AM 44.3308 -93.3922 27° Northeast 378 435 11,000 -49 Descending Minneapolis Center
Tue 08:43:07 AM 44.4217 -93.3297 26° Northeast 368 423 11,000  Level Minneapolis Center
Tue 08:44:08 AM 44.5103 -93.2672 27° Northeast 360 414 11,000 -293 Level Minneapolis Center
Tue 08:45:10 AM 44.5989 -93.2056 26° Northeast 359 413 10,400 -390 Descending Minneapolis Center
Tue 08:46:11 AM 44.6839 -93.2167 355° North 304 350 10,200 -976 Descending Minneapolis Center
Tue 08:47:13 AM 44.7592 -93.2631 336° Northwest 282 325 8,400 -1,317 Descending Minneapolis Center
Tue 08:48:14 AM 44.8222 -93.3222 326° Northwest 271 312 7,500 -1,171 Descending Minneapolis Center
Tue 08:49:16 AM 44.8664 -93.4067 306° West 269 310 6,000 -976 Descending Minneapolis Center
Tue 08:50:17 AM 44.9206 -93.5106 306° West 273 314 5,500 -488 Descending Minneapolis Center
Tue 08:51:19 AM 44.9778 -93.5525 333° Northwest 255 293 5,000 -293 Descending Minneapolis Center
Tue 08:52:20 AM 44.9953 -93.4811 71° East 201 231 4,900 -537 Descending Minneapolis Center
Tue 08:53:22 AM 44.9678 -93.4189 122° Southeast 184 212 3,900 -878 Descending Minneapolis Center
Tue 08:54:23 AM 44.9458 -93.3683 122° Southeast 155 178 3,100 -732 Descending Minneapolis Center
Tue 08:55:25 AM 44.9269 -93.3242 121° Southeast 135 155 2,400 -732 Descending Minneapolis Center
Tue 08:56:26 AM 44.9089 -93.2822 121° Southeast 125 144 1,600 -787 Descending Minneapolis Center

Login

Don't have an account? Register now (free) for customized features, flight alerts, and more!